Time;durP1;ratioP1;P1;durP2;ratioP2;P2;SDS_P1;SDS_P2;PMS_P1;PMS_P2;Temp;Humidity;BMP_temperature;BMP_pressure;BME280_temperature;BME280_humidity;BME280_pressure;Samples;Min_cycle;Max_cycle;Signal;HPM_P1;HPM_P2
2019/12/15 00:01:54;;;;;;;4.7;1.5;;;;;;;9.08;69.77832;950.6473;;;;
2019/12/15 00:04:04;;;;;;;4.2;1.3;;;;;;;9.09;69.94434;950.6472;;;;
2019/12/15 00:06:29;;;;;;;3;1.2;;;;;;;9.15;69.67285;950.7032;;;;
2019/12/15 00:08:54;;;;;;;2.6;1.2;;;;;;;9.21;69.1084;950.7213;;;;
2019/12/15 00:11:19;;;;;;;4.3;1.6;;;;;;;9.18;68.88281;950.7352;;;;
2019/12/15 00:13:44;;;;;;;3;1.5;;;;;;;9.15;69.32227;950.7425;;;;
2019/12/15 00:16:09;;;;;;;3;1.4;;;;;;;9.12;69.45801;950.7112;;;;
2019/12/15 00:18:35;;;;;;;3.1;1.4;;;;;;;9.24;69.70898;950.7152;;;;
2019/12/15 00:21:01;;;;;;;3.9;1.5;;;;;;;9.18;70.19043;950.7261;;;;
2019/12/15 00:23:25;;;;;;;2.4;1.2;;;;;;;9.15;70.79395;950.6696;;;;
2019/12/15 00:25:50;;;;;;;3.6;1.3;;;;;;;9.11;70.77637;950.6519;;;;
2019/12/15 00:28:15;;;;;;;3.4;1.4;;;;;;;9.13;71;950.6595;;;;
2019/12/15 00:30:40;;;;;;;5;1.6;;;;;;;9.02;71.63477;950.6322;;;;
2019/12/15 00:33:05;;;;;;;3.7;1.2;;;;;;;9.02;71.74219;950.5653;;;;
2019/12/15 00:35:30;;;;;;;3.7;1.4;;;;;;;9.05;71.78125;950.4697;;;;
2019/12/15 00:37:55;;;;;;;3.4;1.5;;;;;;;9.14;71.16602;950.5028;;;;
2019/12/15 00:40:21;;;;;;;4.3;1.3;;;;;;;9.2;71.15332;950.5175;;;;
2019/12/15 00:42:46;;;;;;;2.4;1.1;;;;;;;9.27;70.7666;950.49;;;;
2019/12/15 00:45:11;;;;;;;3.9;1.2;;;;;;;9.35;70.86133;950.4624;;;;
2019/12/15 00:47:36;;;;;;;2.8;1.2;;;;;;;9.41;70.19434;950.4158;;;;
2019/12/15 00:50:01;;;;;;;3;1.2;;;;;;;9.37;70.08203;950.4681;;;;
2019/12/15 00:52:26;;;;;;;3.2;1.3;;;;;;;9.17;71.14746;950.4519;;;;
2019/12/15 00:54:51;;;;;;;3.8;1.3;;;;;;;9.09;71.90723;950.5887;;;;
2019/12/15 00:57:16;;;;;;;2.9;1.4;;;;;;;8.97;72.6084;950.601;;;;
2019/12/15 00:59:42;;;;;;;3.1;1.4;;;;;;;8.88;73.10742;950.6727;;;;
2019/12/15 01:02:08;;;;;;;3.5;1.4;;;;;;;8.81;73.45801;950.6412;;;;
2019/12/15 01:05:17;;;;;;;3;1.6;;;;;;;8.79;73.50098;950.608;;;;
2019/12/15 01:07:04;;;;;;;4.1;1.5;;;;;;;8.87;73.375;950.6178;;;;
2019/12/15 01:09:22;;;;;;;4.2;1.7;;;;;;;8.9;73.25195;950.6533;;;;
2019/12/15 01:11:47;;;;;;;3.4;1.5;;;;;;;8.92;73.30078;950.7151;;;;
2019/12/15 01:14:12;;;;;;;4.7;1.7;;;;;;;9.06;72.625;950.8187;;;;
2019/12/15 01:16:38;;;;;;;3.3;1.3;;;;;;;9.04;72.89063;950.7792;;;;
2019/12/15 01:19:03;;;;;;;2.8;1.3;;;;;;;9.04;73.25293;950.8491;;;;
2019/12/15 01:21:28;;;;;;;3.7;1.3;;;;;;;9.05;73.46289;950.812;;;;
2019/12/15 01:23:53;;;;;;;4.6;1.6;;;;;;;8.88;74.80078;950.9319;;;;
2019/12/15 01:26:18;;;;;;;2.9;1.4;;;;;;;8.84;75.40137;950.9207;;;;
2019/12/15 01:28:43;;;;;;;4.4;1.5;;;;;;;8.8;76.10547;950.8275;;;;
2019/12/15 01:31:08;;;;;;;4.1;1.5;;;;;;;8.74;76.98145;950.8658;;;;
2019/12/15 01:33:33;;;;;;;2.9;1.4;;;;;;;8.65;77.71289;950.8491;;;;
2019/12/15 01:35:58;;;;;;;3.4;1.6;;;;;;;8.6;77.99512;950.8808;;;;
2019/12/15 01:38:23;;;;;;;4.5;1.6;;;;;;;8.6;77.73828;950.7252;;;;
2019/12/15 01:40:48;;;;;;;3;1.6;;;;;;;8.73;77.5752;950.7455;;;;
2019/12/15 01:43:14;;;;;;;7.5;1.9;;;;;;;8.66;77.80762;950.67;;;;
2019/12/15 01:45:39;;;;;;;3.8;2;;;;;;;8.78;77.5498;950.5607;;;;
2019/12/15 01:48:04;;;;;;;4.9;1.9;;;;;;;8.85;76.96777;950.3981;;;;
2019/12/15 01:50:29;;;;;;;3.6;2;;;;;;;8.5;79.01367;950.2527;;;;
2019/12/15 01:52:54;;;;;;;3.8;2;;;;;;;8.47;79.66211;950.1453;;;;
2019/12/15 01:55:19;;;;;;;5.3;2.2;;;;;;;8.48;79.32617;950.1406;;;;
2019/12/15 01:57:44;;;;;;;4.4;2.2;;;;;;;8.39;79.58984;950.0718;;;;
2019/12/15 02:00:09;;;;;;;3.4;1.9;;;;;;;8.49;79.3877;950.0822;;;;
2019/12/15 02:02:45;;;;;;;3.9;2;;;;;;;8.47;79.61621;950.0745;;;;
2019/12/15 02:07:29;;;;;;;3.9;2.1;;;;;;;8.45;79.69434;950.0286;;;;
2019/12/15 02:09:50;;;;;;;3.6;2.1;;;;;;;8.58;79.08691;950.0636;;;;
2019/12/15 02:12:15;;;;;;;3.6;2.1;;;;;;;8.66;78.83496;950.074;;;;
2019/12/15 02:14:40;;;;;;;4.4;2.1;;;;;;;8.5;79.26074;950.0339;;;;
2019/12/15 02:17:05;;;;;;;4.1;2;;;;;;;8.63;78.95801;950.0506;;;;
2019/12/15 02:19:30;;;;;;;3.9;2.2;;;;;;;8.73;78.56738;950.0457;;;;
2019/12/15 02:21:55;;;;;;;4.4;2.2;;;;;;;8.71;78.61133;949.9875;;;;
2019/12/15 02:24:20;;;;;;;5.8;2.3;;;;;;;8.71;78.62305;950.028;;;;
2019/12/15 02:26:45;;;;;;;4.9;2.2;;;;;;;8.71;78.90234;950.0364;;;;
2019/12/15 02:29:10;;;;;;;4.8;2;;;;;;;8.75;78.4541;950.0436;;;;
2019/12/15 02:31:35;;;;;;;6.3;2.1;;;;;;;8.71;78.57617;950.1804;;;;
2019/12/15 02:34:01;;;;;;;3.4;2.1;;;;;;;8.77;78.66699;950.0931;;;;
2019/12/15 02:36:26;;;;;;;3.7;1.9;;;;;;;8.8;78.54395;950.1396;;;;
2019/12/15 02:38:51;;;;;;;4.5;2.2;;;;;;;8.76;78.9707;950.0611;;;;
2019/12/15 02:41:16;;;;;;;2.9;1.9;;;;;;;8.73;79.4082;950.01;;;;
2019/12/15 02:43:41;;;;;;;3.9;1.9;;;;;;;8.64;79.84668;950.091;;;;
2019/12/15 02:46:06;;;;;;;4.1;2;;;;;;;8.76;79.28613;950.1094;;;;
2019/12/15 02:48:31;;;;;;;4.8;2.3;;;;;;;8.55;80.63379;949.9094;;;;
2019/12/15 02:50:56;;;;;;;4.4;2.2;;;;;;;8.44;81.29004;950.0242;;;;
2019/12/15 02:53:21;;;;;;;5.9;2.2;;;;;;;8.36;81.81152;949.9549;;;;
2019/12/15 02:55:46;;;;;;;5.2;2.1;;;;;;;8.41;81.85645;949.8487;;;;
2019/12/15 02:58:11;;;;;;;4.1;1.9;;;;;;;8.46;81.74902;950.0782;;;;
2019/12/15 03:00:37;;;;;;;5.6;2.1;;;;;;;8.58;81.12891;950.084;;;;
2019/12/15 03:03:02;;;;;;;4.6;1.8;;;;;;;8.48;81.71875;950.0308;;;;
2019/12/15 03:05:27;;;;;;;5.2;2.1;;;;;;;8.38;82.44531;949.8867;;;;
2019/12/15 03:07:52;;;;;;;3.2;1.8;;;;;;;8.31;83.08301;949.8308;;;;
2019/12/15 03:10:17;;;;;;;5.5;1.7;;;;;;;8.35;82.99902;949.707;;;;
2019/12/15 03:12:42;;;;;;;3.8;1.9;;;;;;;8.31;83.43359;949.7346;;;;
2019/12/15 03:15:07;;;;;;;3.2;1.8;;;;;;;8.31;83.71191;949.6525;;;;
2019/12/15 03:17:32;;;;;;;3.9;1.6;;;;;;;8.43;83.23828;949.5215;;;;
2019/12/15 03:19:57;;;;;;;3.9;1.6;;;;;;;8.4;83.45117;949.4832;;;;
2019/12/15 03:22:22;;;;;;;3.3;1.6;;;;;;;8.55;83.11816;949.4835;;;;
2019/12/15 03:24:48;;;;;;;1.9;1.4;;;;;;;8.65;82.29883;949.4766;;;;
2019/12/15 03:27:13;;;;;;;3.8;1.7;;;;;;;8.48;83.43164;949.4249;;;;
2019/12/15 03:29:38;;;;;;;5.5;1.5;;;;;;;8.39;83.88086;949.3684;;;;
2019/12/15 03:32:03;;;;;;;3.3;1.5;;;;;;;8.39;84.10059;949.2554;;;;
2019/12/15 03:34:28;;;;;;;3.1;1.4;;;;;;;8.42;84.08594;949.3563;;;;
2019/12/15 03:36:53;;;;;;;2.9;1.3;;;;;;;8.33;84.20703;949.2748;;;;
2019/12/15 03:39:21;;;;;;;3;1.6;;;;;;;8.29;84.73633;949.2809;;;;
2019/12/15 03:41:44;;;;;;;3.4;1.4;;;;;;;8.4;83.52246;949.303;;;;
2019/12/15 03:44:09;;;;;;;3.2;1.4;;;;;;;8.42;83.29102;949.223;;;;
2019/12/15 03:46:34;;;;;;;2.4;1.2;;;;;;;8.44;83.12109;949.1927;;;;
2019/12/15 03:48:59;;;;;;;2.6;1.3;;;;;;;8.49;82.80469;949.1573;;;;
2019/12/15 03:53:49;;;;;;;3.2;1.3;;;;;;;8.64;81.86523;949.1588;;;;
2019/12/15 03:56:14;;;;;;;2.7;1.4;;;;;;;8.75;81.13672;949.1424;;;;
2019/12/15 03:58:39;;;;;;;3.1;1.4;;;;;;;8.81;79.90234;949.1279;;;;
2019/12/15 04:02:26;;;;;;;2.2;1.3;;;;;;;8.95;79.12109;949.1415;;;;
2019/12/15 04:04:51;;;;;;;2;1.1;;;;;;;8.96;78.57422;949.27;;;;
2019/12/15 04:07:16;;;;;;;2.2;1.1;;;;;;;8.94;78.90918;949.2827;;;;
2019/12/15 04:09:41;;;;;;;2;1.1;;;;;;;9.01;78.60742;949.2065;;;;
2019/12/15 04:12:06;;;;;;;2.5;1.1;;;;;;;9.08;78.375;949.1504;;;;
2019/12/15 04:14:31;;;;;;;3;1.1;;;;;;;9.11;77.66699;949.1797;;;;
2019/12/15 04:16:57;;;;;;;2.6;1;;;;;;;9.19;77.14355;949.1507;;;;
2019/12/15 04:19:22;;;;;;;2.2;1;;;;;;;9.14;77.3916;949.16;;;;
2019/12/15 04:21:47;;;;;;;1.3;0.8;;;;;;;9.13;76.31543;949.1542;;;;
2019/12/15 04:24:12;;;;;;;1.8;0.9;;;;;;;9.16;76.77734;949.1763;;;;
2019/12/15 04:26:37;;;;;;;1.9;0.9;;;;;;;9.12;76.71094;949.1297;;;;
2019/12/15 04:29:02;;;;;;;2.3;1;;;;;;;9.07;77.16895;949.1915;;;;
2019/12/15 04:31:27;;;;;;;1.7;1;;;;;;;9.09;76.13379;949.2101;;;;
2019/12/15 04:36:13;;;;;;;1.2;0.9;;;;;;;9.22;75.17578;949.2289;;;;
2019/12/15 04:38:38;;;;;;;1.6;0.9;;;;;;;9.25;75.25;949.2308;;;;
2019/12/15 04:41:03;;;;;;;1.4;0.9;;;;;;;9.26;74.30566;949.3574;;;;
2019/12/15 04:43:28;;;;;;;1.5;0.9;;;;;;;9.25;74.79297;949.2994;;;;
2019/12/15 04:45:53;;;;;;;2.3;0.9;;;;;;;9.15;74.74316;949.2938;;;;
2019/12/15 04:48:18;;;;;;;2.7;0.9;;;;;;;9.22;74.74316;949.3441;;;;
2019/12/15 04:50:43;;;;;;;2.5;0.9;;;;;;;9.29;73.9375;949.3989;;;;
2019/12/15 04:53:08;;;;;;;1.4;0.8;;;;;;;9.29;73.86719;949.4281;;;;
2019/12/15 04:55:34;;;;;;;2.5;0.9;;;;;;;9.3;73.21289;949.4606;;;;
2019/12/15 04:57:59;;;;;;;1.3;0.8;;;;;;;9.32;73.12402;949.4451;;;;
2019/12/15 05:00:24;;;;;;;1.6;0.8;;;;;;;9.37;72.31348;949.4076;;;;
2019/12/15 05:02:49;;;;;;;2.2;0.8;;;;;;;9.35;71.87793;949.4197;;;;
2019/12/15 05:05:14;;;;;;;3.3;1;;;;;;;9.4;72.26074;949.3351;;;;
2019/12/15 05:07:39;;;;;;;1.9;0.8;;;;;;;9.44;71.83398;949.4084;;;;
2019/12/15 05:10:04;;;;;;;2;1;;;;;;;9.49;71.81934;949.4083;;;;
2019/12/15 05:12:29;;;;;;;1.2;0.8;;;;;;;9.58;72.37305;949.3209;;;;
2019/12/15 05:14:54;;;;;;;1.7;0.9;;;;;;;9.48;72.58984;949.3801;;;;
2019/12/15 05:17:19;;;;;;;1.1;0.7;;;;;;;9.62;72.22754;949.3922;;;;
2019/12/15 05:19:44;;;;;;;2;0.8;;;;;;;9.53;72.48047;949.2783;;;;
2019/12/15 05:22:09;;;;;;;3;0.7;;;;;;;9.62;72.56641;949.3455;;;;
2019/12/15 05:24:34;;;;;;;2.1;0.8;;;;;;;9.66;72.02441;949.3683;;;;
2019/12/15 05:26:59;;;;;;;1.2;0.8;;;;;;;9.69;72.75391;949.2972;;;;
2019/12/15 05:29:25;;;;;;;1.4;0.8;;;;;;;9.77;72.11035;949.3401;;;;
2019/12/15 05:31:50;;;;;;;2;0.7;;;;;;;9.75;72.30762;949.2753;;;;
2019/12/15 05:34:15;;;;;;;1.8;0.8;;;;;;;9.69;72.64844;949.2589;;;;
2019/12/15 05:36:40;;;;;;;1.6;0.9;;;;;;;9.65;72.98145;949.2229;;;;
2019/12/15 05:39:05;;;;;;;0.9;0.6;;;;;;;9.64;72.78027;949.2737;;;;
2019/12/15 05:41:30;;;;;;;1.9;0.8;;;;;;;9.72;72.89844;949.2534;;;;
2019/12/15 05:43:55;;;;;;;1.3;0.8;;;;;;;9.77;72.69727;949.2406;;;;
2019/12/15 05:46:20;;;;;;;1.3;0.9;;;;;;;9.75;73.08984;949.3189;;;;
2019/12/15 05:48:45;;;;;;;1.2;0.9;;;;;;;9.68;73.43066;949.2288;;;;
2019/12/15 05:51:10;;;;;;;1;0.8;;;;;;;9.64;73.66992;949.1711;;;;
2019/12/15 05:53:35;;;;;;;1.2;0.8;;;;;;;9.72;73.55469;949.1805;;;;
2019/12/15 05:56:00;;;;;;;1.4;0.8;;;;;;;9.72;73.53125;949.1425;;;;
2019/12/15 05:58:25;;;;;;;2.2;0.8;;;;;;;9.68;73.69922;949.1878;;;;
2019/12/15 06:00:51;;;;;;;1.4;0.8;;;;;;;9.74;73.36914;949.2264;;;;
2019/12/15 06:03:16;;;;;;;1.2;0.8;;;;;;;9.74;73.63867;949.2249;;;;
2019/12/15 06:05:41;;;;;;;1.1;0.8;;;;;;;9.77;73.9834;949.2205;;;;
2019/12/15 06:08:06;;;;;;;1.7;0.8;;;;;;;9.78;73.98633;949.1682;;;;
2019/12/15 06:10:31;;;;;;;1.7;0.7;;;;;;;9.77;73.87891;949.2319;;;;
2019/12/15 06:12:56;;;;;;;1.4;0.9;;;;;;;9.81;74.27246;949.1522;;;;
2019/12/15 06:15:21;;;;;;;1.4;0.8;;;;;;;9.83;74.06641;949.093;;;;
2019/12/15 06:17:46;;;;;;;1.1;0.7;;;;;;;9.87;74.03516;949.2394;;;;
2019/12/15 06:20:11;;;;;;;1.2;0.8;;;;;;;9.96;73.62891;949.2419;;;;
2019/12/15 06:22:36;;;;;;;1.1;0.8;;;;;;;9.99;73.61133;949.2779;;;;
2019/12/15 06:25:01;;;;;;;1.7;0.9;;;;;;;9.98;73.50488;949.3784;;;;
2019/12/15 06:27:26;;;;;;;1;0.8;;;;;;;9.91;73.99609;949.3514;;;;
2019/12/15 06:29:52;;;;;;;1.3;0.8;;;;;;;9.86;73.79004;949.34;;;;
2019/12/15 06:32:17;;;;;;;1;0.7;;;;;;;9.82;73.72266;949.3055;;;;
2019/12/15 06:34:42;;;;;;;0.9;0.8;;;;;;;9.93;72.62988;949.2832;;;;
2019/12/15 06:37:07;;;;;;;1.1;0.8;;;;;;;9.94;72.39844;949.3016;;;;
2019/12/15 06:39:32;;;;;;;2.6;1;;;;;;;9.93;72.02148;949.3069;;;;
2019/12/15 06:41:57;;;;;;;1;0.8;;;;;;;10.01;71.56641;949.4281;;;;
2019/12/15 06:44:22;;;;;;;1;0.8;;;;;;;10;71.68164;949.3766;;;;
2019/12/15 06:46:47;;;;;;;1.2;0.9;;;;;;;9.97;71.53711;949.4523;;;;
2019/12/15 06:49:12;;;;;;;1;0.8;;;;;;;9.99;71.52832;949.4328;;;;
2019/12/15 06:51:48;;;;;;;1.4;0.8;;;;;;;10;71.0625;949.5605;;;;
2019/12/15 06:54:03;;;;;;;0.9;0.7;;;;;;;10.04;70.91504;949.3575;;;;
2019/12/15 06:56:28;;;;;;;1.2;0.8;;;;;;;9.92;72.07813;949.5162;;;;
2019/12/15 06:58:53;;;;;;;1.7;0.9;;;;;;;9.97;71.20898;949.4442;;;;
2019/12/15 07:01:18;;;;;;;1.4;0.8;;;;;;;10.03;70.93848;949.4327;;;;
2019/12/15 07:03:43;;;;;;;1.2;0.8;;;;;;;10.07;70.61816;949.3886;;;;
2019/12/15 07:06:08;;;;;;;1;0.7;;;;;;;10.16;69.97559;949.5175;;;;
2019/12/15 07:08:33;;;;;;;2;0.9;;;;;;;10.13;70.48633;949.5787;;;;
2019/12/15 07:10:58;;;;;;;2.4;0.9;;;;;;;10.22;70.08887;949.7043;;;;
2019/12/15 07:13:23;;;;;;;1;0.8;;;;;;;10.23;70;949.6117;;;;
2019/12/15 07:15:48;;;;;;;1.2;0.8;;;;;;;10.35;69.52637;949.671;;;;
2019/12/15 07:18:13;;;;;;;1.2;0.8;;;;;;;10.43;69.37305;949.7004;;;;
2019/12/15 07:20:39;;;;;;;1.5;0.8;;;;;;;10.47;69.2998;949.7347;;;;
2019/12/15 07:23:04;;;;;;;0.9;0.8;;;;;;;10.54;68.77051;949.6345;;;;
2019/12/15 07:25:29;;;;;;;0.9;0.6;;;;;;;10.53;69.06348;949.6905;;;;
2019/12/15 07:28:09;;;;;;;1.6;0.9;;;;;;;10.5;69.21094;949.6686;;;;
2019/12/15 07:30:19;;;;;;;1.6;0.8;;;;;;;10.47;69.34668;949.7389;;;;
2019/12/15 07:32:44;;;;;;;1.1;0.8;;;;;;;10.6;68.78223;949.7357;;;;
2019/12/15 07:35:09;;;;;;;1;0.7;;;;;;;10.61;68.86523;949.8019;;;;
2019/12/15 07:37:34;;;;;;;1.5;0.8;;;;;;;10.66;68.47559;949.8761;;;;
2019/12/15 07:39:59;;;;;;;1.2;0.8;;;;;;;10.78;68.15332;949.981;;;;
2019/12/15 07:42:24;;;;;;;1.7;0.9;;;;;;;10.79;68.52832;949.8538;;;;
2019/12/15 07:44:49;;;;;;;1.1;0.9;;;;;;;10.84;68.14941;949.8998;;;;
2019/12/15 07:47:14;;;;;;;0.9;0.8;;;;;;;11;67.87109;949.8652;;;;
2019/12/15 07:49:39;;;;;;;1.2;0.8;;;;;;;12.3;63.47266;949.8767;;;;
2019/12/15 07:52:04;;;;;;;0.9;0.7;;;;;;;12.31;62.93359;949.837;;;;
2019/12/15 07:54:30;;;;;;;1.3;0.8;;;;;;;12.01;64.11523;949.9171;;;;
2019/12/15 07:56:55;;;;;;;0.9;0.8;;;;;;;11.97;64.64844;950.0781;;;;
2019/12/15 07:59:20;;;;;;;1.9;0.7;;;;;;;11.85;64.83105;950.0767;;;;
2019/12/15 08:01:45;;;;;;;1.3;0.8;;;;;;;11.91;64.88574;950.0814;;;;
2019/12/15 08:04:10;;;;;;;1.5;0.9;;;;;;;11.84;65.21582;950.0427;;;;
2019/12/15 08:06:35;;;;;;;2.4;0.7;;;;;;;11.78;65.66699;950.0939;;;;
2019/12/15 08:09:00;;;;;;;1.2;0.8;;;;;;;12.17;64.20801;950.0803;;;;
2019/12/15 08:11:25;;;;;;;1.3;0.8;;;;;;;12.84;61.67871;950.0118;;;;
2019/12/15 08:13:50;;;;;;;1.2;0.8;;;;;;;12.23;63.67578;950.1041;;;;
2019/12/15 08:16:15;;;;;;;1.1;0.7;;;;;;;11.85;64.86621;950.2326;;;;
2019/12/15 08:18:40;;;;;;;1;0.7;;;;;;;11.84;65.16895;950.2008;;;;
2019/12/15 08:21:05;;;;;;;1.3;0.7;;;;;;;12.51;63.12793;950.2012;;;;
2019/12/15 08:23:31;;;;;;;0.9;0.7;;;;;;;13.45;59.65332;950.3333;;;;
2019/12/15 08:25:56;;;;;;;1.6;0.7;;;;;;;14.24;57.12695;950.2179;;;;
2019/12/15 08:28:21;;;;;;;1;0.8;;;;;;;16.07;51.18164;950.2605;;;;
2019/12/15 08:30:46;;;;;;;1.3;0.8;;;;;;;18.08;45.72852;950.1683;;;;
2019/12/15 08:33:11;;;;;;;2;0.8;;;;;;;18.33;44.48926;950.1511;;;;
2019/12/15 08:35:36;;;;;;;1;0.7;;;;;;;16.31;50.11816;950.2708;;;;
2019/12/15 08:38:01;;;;;;;2.4;0.8;;;;;;;14.86;54.09375;950.1802;;;;
2019/12/15 08:40:26;;;;;;;1.3;0.7;;;;;;;14.6;55.31543;950.2405;;;;
2019/12/15 08:42:51;;;;;;;1.1;0.8;;;;;;;14.36;56.13574;950.291;;;;
2019/12/15 08:45:16;;;;;;;0.9;0.7;;;;;;;14.13;56.5791;950.3828;;;;
2019/12/15 08:50:07;;;;;;;1.3;0.7;;;;;;;14.02;57.2168;950.2888;;;;
2019/12/15 08:52:48;;;;;;;1.1;0.7;;;;;;;14.09;57.40039;950.3705;;;;
2019/12/15 08:54:57;;;;;;;1.1;0.8;;;;;;;13.82;57.30762;950.5289;;;;
2019/12/15 08:57:22;;;;;;;1.3;0.7;;;;;;;13.83;57.7334;950.4954;;;;
2019/12/15 08:59:47;;;;;;;1.2;0.8;;;;;;;13.7;57.99902;950.4519;;;;
2019/12/15 09:02:12;;;;;;;2.3;0.8;;;;;;;13.62;57.96484;950.5045;;;;
2019/12/15 09:04:37;;;;;;;1.8;0.6;;;;;;;13.78;58.0459;950.4238;;;;
2019/12/15 09:07:02;;;;;;;1.3;0.8;;;;;;;13.77;58.06836;950.4667;;;;
2019/12/15 09:09:27;;;;;;;0.9;0.8;;;;;;;13.72;57.85059;950.4608;;;;
2019/12/15 09:11:52;;;;;;;1.1;0.8;;;;;;;13.68;57.84277;950.4537;;;;
2019/12/15 09:14:17;;;;;;;2.1;0.8;;;;;;;13.77;57.99805;950.5053;;;;
2019/12/15 09:16:43;;;;;;;1.1;0.7;;;;;;;13.68;57.97266;950.7888;;;;
2019/12/15 09:19:08;;;;;;;1.2;0.7;;;;;;;13.64;58.21582;950.673;;;;
2019/12/15 09:21:33;;;;;;;1.1;0.7;;;;;;;13.55;58.29883;950.6842;;;;
2019/12/15 09:23:58;;;;;;;1.1;0.7;;;;;;;13.45;58.39063;950.7332;;;;
2019/12/15 09:26:23;;;;;;;1.2;0.7;;;;;;;13.51;58.37598;950.8347;;;;
2019/12/15 09:28:48;;;;;;;1.4;0.8;;;;;;;13.49;58.47949;950.6855;;;;
2019/12/15 09:31:13;;;;;;;0.8;0.6;;;;;;;13.52;58.12891;950.7466;;;;
2019/12/15 09:33:38;;;;;;;1.1;0.7;;;;;;;13.58;58.08984;950.7078;;;;
2019/12/15 09:36:03;;;;;;;1.9;0.7;;;;;;;13.55;57.98047;950.7125;;;;
2019/12/15 09:38:29;;;;;;;1.1;0.7;;;;;;;13.61;57.63281;950.8137;;;;
2019/12/15 09:40:54;;;;;;;1.6;0.7;;;;;;;13.57;58.19336;950.6967;;;;
2019/12/15 09:43:19;;;;;;;0.8;0.7;;;;;;;13.59;57.64258;950.7305;;;;
2019/12/15 09:45:44;;;;;;;1;0.6;;;;;;;13.7;57.13867;950.6166;;;;
2019/12/15 09:48:09;;;;;;;1.6;0.8;;;;;;;13.79;57.07813;950.6089;;;;
2019/12/15 09:50:34;;;;;;;2.1;0.8;;;;;;;13.75;57.0625;950.8075;;;;
2019/12/15 09:52:59;;;;;;;1;0.7;;;;;;;13.84;56.3418;950.7589;;;;
2019/12/15 09:55:24;;;;;;;1.1;0.7;;;;;;;13.96;56.45117;950.8674;;;;
2019/12/15 09:57:49;;;;;;;0.8;0.7;;;;;;;14.16;55.99414;950.7773;;;;
2019/12/15 10:00:15;;;;;;;2.1;0.7;;;;;;;14.21;55.36133;951.0084;;;;
2019/12/15 10:02:40;;;;;;;1.1;0.8;;;;;;;14.21;55.27832;950.8409;;;;
2019/12/15 10:05:05;;;;;;;0.7;0.6;;;;;;;14.27;55.09766;950.9442;;;;
2019/12/15 10:07:30;;;;;;;0.6;0.5;;;;;;;14.45;54.78809;950.9632;;;;
2019/12/15 10:09:55;;;;;;;0.7;0.5;;;;;;;14.35;54.83496;950.9133;;;;
2019/12/15 10:12:21;;;;;;;0.8;0.5;;;;;;;14.35;54.94141;950.9238;;;;
2019/12/15 10:14:51;;;;;;;0.5;0.4;;;;;;;14.39;54.74609;951.0139;;;;
2019/12/15 10:17:17;;;;;;;2.5;0.7;;;;;;;14.47;54.67285;951.0178;;;;
2019/12/15 10:22:01;;;;;;;0.6;0.6;;;;;;;14.79;53.71777;950.8785;;;;
2019/12/15 10:24:26;;;;;;;1.8;0.6;;;;;;;14.75;53.74902;950.9897;;;;
2019/12/15 10:26:51;;;;;;;0.7;0.5;;;;;;;14.79;53.6123;950.9905;;;;
2019/12/15 10:29:16;;;;;;;0.9;0.5;;;;;;;14.62;53.70996;950.9768;;;;
2019/12/15 10:31:42;;;;;;;0.6;0.4;;;;;;;14.52;53.73242;950.9532;;;;
2019/12/15 10:34:07;;;;;;;0.8;0.5;;;;;;;14.61;53.83887;950.8912;;;;
2019/12/15 10:36:35;;;;;;;0.7;0.5;;;;;;;14.71;53.99316;951.0997;;;;
2019/12/15 10:39:07;;;;;;;1.4;0.4;;;;;;;14.74;53.08496;950.8984;;;;
2019/12/15 10:41:32;;;;;;;1.7;0.4;;;;;;;14.82;52.98828;950.9147;;;;
2019/12/15 10:43:57;;;;;;;0.9;0.5;;;;;;;14.91;53.2832;950.8912;;;;
2019/12/15 10:46:22;;;;;;;1.4;0.5;;;;;;;14.92;52.55078;950.9375;;;;
2019/12/15 10:48:48;;;;;;;1.2;0.5;;;;;;;15.15;52.17578;950.9386;;;;
2019/12/15 10:51:13;;;;;;;1;0.6;;;;;;;15.23;52.31641;950.9774;;;;
2019/12/15 10:53:38;;;;;;;1.7;0.6;;;;;;;15.2;52.43164;950.9428;;;;
2019/12/15 10:56:03;;;;;;;0.6;0.5;;;;;;;15.2;52.49023;951.0324;;;;
2019/12/15 10:58:28;;;;;;;1.6;0.5;;;;;;;15.02;52.7998;951.0043;;;;
2019/12/15 11:00:53;;;;;;;0.8;0.5;;;;;;;15.17;52.62793;950.9597;;;;
2019/12/15 11:03:18;;;;;;;0.5;0.5;;;;;;;15.1;53.21191;950.8961;;;;
2019/12/15 11:05:43;;;;;;;0.7;0.5;;;;;;;14.98;52.79492;950.801;;;;
2019/12/15 11:08:08;;;;;;;0.4;0.4;;;;;;;14.92;52.9541;950.9201;;;;
2019/12/15 11:10:33;;;;;;;0.5;0.4;;;;;;;14.97;53.46875;951.1312;;;;
2019/12/15 11:12:58;;;;;;;0.8;0.5;;;;;;;14.89;53.25781;950.8769;;;;
2019/12/15 11:15:23;;;;;;;0.7;0.5;;;;;;;14.71;53.81543;950.9959;;;;
2019/12/15 11:17:49;;;;;;;0.8;0.6;;;;;;;14.68;53.89453;951.0967;;;;
2019/12/15 11:20:14;;;;;;;0.7;0.6;;;;;;;14.73;54.14941;951.009;;;;
2019/12/15 11:22:39;;;;;;;0.8;0.5;;;;;;;14.66;54.35352;950.9934;;;;
2019/12/15 11:25:04;;;;;;;0.8;0.6;;;;;;;14.73;53.86523;951.0042;;;;
2019/12/15 11:27:29;;;;;;;0.7;0.4;;;;;;;14.81;53.63867;951.0117;;;;
2019/12/15 11:29:54;;;;;;;0.5;0.5;;;;;;;15.03;53.19141;951.0994;;;;
2019/12/15 11:32:19;;;;;;;0.5;0.5;;;;;;;15.06;53.13574;951.1012;;;;
2019/12/15 11:34:44;;;;;;;1.5;0.5;;;;;;;15.07;52.95996;951.149;;;;
2019/12/15 11:37:09;;;;;;;1.2;0.5;;;;;;;15.07;52.99609;951.1195;;;;
2019/12/15 11:39:34;;;;;;;1.5;0.5;;;;;;;15.09;53.18652;951.0662;;;;
2019/12/15 11:41:59;;;;;;;1.4;0.5;;;;;;;15.22;53.06055;951.1627;;;;
2019/12/15 11:44:25;;;;;;;0.7;0.5;;;;;;;15.17;52.84277;951.1006;;;;
2019/12/15 11:46:50;;;;;;;0.8;0.5;;;;;;;15.51;52.08789;951.0967;;;;
2019/12/15 11:49:15;;;;;;;0.7;0.5;;;;;;;15.8;51.20898;951.1439;;;;
2019/12/15 11:51:40;;;;;;;1.4;0.4;;;;;;;15.89;51.17285;951.0879;;;;
2019/12/15 11:54:05;;;;;;;0.5;0.4;;;;;;;15.93;50.70215;951.2269;;;;
2019/12/15 11:56:30;;;;;;;0.8;0.5;;;;;;;15.82;50.72559;951.1873;;;;
2019/12/15 11:58:55;;;;;;;0.9;0.4;;;;;;;15.84;50.8584;951.0265;;;;
2019/12/15 12:01:20;;;;;;;0.8;0.5;;;;;;;15.67;50.92188;951.2053;;;;
2019/12/15 12:03:45;;;;;;;1.5;0.4;;;;;;;15.8;51.04395;951.2391;;;;
2019/12/15 12:07:07;;;;;;;1.1;0.5;;;;;;;15.89;50.99609;951.2083;;;;
2019/12/15 12:08:40;;;;;;;0.5;0.4;;;;;;;15.78;50.91113;951.2119;;;;
2019/12/15 12:11:00;;;;;;;0.6;0.5;;;;;;;15.8;51.20898;951.4178;;;;
2019/12/15 12:13:25;;;;;;;1.8;0.4;;;;;;;15.69;50.93555;951.3574;;;;
2019/12/15 12:15:51;;;;;;;0.5;0.5;;;;;;;15.69;51.3623;951.3431;;;;
2019/12/15 12:18:16;;;;;;;0.7;0.5;;;;;;;15.63;51.71094;951.3437;;;;
2019/12/15 12:20:41;;;;;;;1.6;0.4;;;;;;;15.66;51.63086;951.3995;;;;
2019/12/15 12:23:06;;;;;;;0.9;0.5;;;;;;;15.47;51.79883;951.3499;;;;
2019/12/15 12:25:31;;;;;;;0.8;0.5;;;;;;;15.41;51.88672;951.3314;;;;
2019/12/15 12:27:56;;;;;;;0.8;0.6;;;;;;;15.54;51.9375;951.4138;;;;
2019/12/15 12:30:21;;;;;;;2;0.5;;;;;;;15.61;51.7207;951.4561;;;;
2019/12/15 12:32:46;;;;;;;0.6;0.5;;;;;;;15.62;51.93555;951.4283;;;;
2019/12/15 12:35:11;;;;;;;0.5;0.5;;;;;;;15.62;51.8877;951.5119;;;;
2019/12/15 12:37:37;;;;;;;0.7;0.4;;;;;;;15.4;52.14648;951.6082;;;;
2019/12/15 12:40:02;;;;;;;0.6;0.6;;;;;;;15.46;52.16504;951.6475;;;;
2019/12/15 12:42:27;;;;;;;0.7;0.5;;;;;;;15.37;52.32129;951.6017;;;;
2019/12/15 12:44:52;;;;;;;1.9;0.5;;;;;;;15.57;52.21387;951.5089;;;;
2019/12/15 12:47:17;;;;;;;0.5;0.4;;;;;;;15.47;52.23633;951.5941;;;;
2019/12/15 12:49:42;;;;;;;0.9;0.5;;;;;;;15.49;52.45313;951.5474;;;;
2019/12/15 12:52:07;;;;;;;1.8;0.4;;;;;;;15.44;52.56641;951.6253;;;;
2019/12/15 12:54:32;;;;;;;0.5;0.3;;;;;;;15.49;52.82031;951.6967;;;;
2019/12/15 12:56:58;;;;;;;0.5;0.4;;;;;;;15.49;52.5127;951.6201;;;;
2019/12/15 12:59:23;;;;;;;0.5;0.4;;;;;;;15.51;52.52734;951.5634;;;;
2019/12/15 13:01:48;;;;;;;1.7;0.4;;;;;;;15.48;52.96191;951.6297;;;;
2019/12/15 13:04:13;;;;;;;1.3;0.4;;;;;;;15.54;52.66113;951.5367;;;;
2019/12/15 13:06:38;;;;;;;0.7;0.4;;;;;;;15.49;52.28711;951.6021;;;;
2019/12/15 13:09:04;;;;;;;1.3;0.3;;;;;;;15.5;51.85059;951.6153;;;;
2019/12/15 13:11:29;;;;;;;0.6;0.5;;;;;;;15.64;51.86719;951.7322;;;;
2019/12/15 13:13:54;;;;;;;0.5;0.4;;;;;;;15.75;51.45313;951.6614;;;;
2019/12/15 13:16:28;;;;;;;0.5;0.4;;;;;;;15.71;51.94629;951.7589;;;;
2019/12/15 13:18:55;;;;;;;0.5;0.3;;;;;;;15.59;52.39453;951.7453;;;;
2019/12/15 13:21:14;;;;;;;0.8;0.3;;;;;;;15.53;51.85352;951.817;;;;
2019/12/15 13:23:34;;;;;;;0.8;0.3;;;;;;;15.5;52.34863;951.8798;;;;
2019/12/15 13:26:00;;;;;;;1.7;0.4;;;;;;;15.55;52.12793;951.8303;;;;
2019/12/15 13:28:25;;;;;;;0.4;0.4;;;;;;;15.45;52.30566;951.8832;;;;
2019/12/15 13:30:50;;;;;;;2.2;0.4;;;;;;;15.39;51.91992;951.7839;;;;
2019/12/15 13:33:15;;;;;;;0.7;0.4;;;;;;;15.31;52.4668;951.8178;;;;
2019/12/15 13:35:40;;;;;;;1;0.5;;;;;;;15.35;52.49512;951.8033;;;;
2019/12/15 13:38:05;;;;;;;0.4;0.4;;;;;;;15.25;52.62598;951.969;;;;
2019/12/15 13:40:30;;;;;;;0.8;0.3;;;;;;;15.12;52.83594;951.9528;;;;
2019/12/15 13:42:55;;;;;;;0.9;0.3;;;;;;;15.07;52.64063;952.0262;;;;
2019/12/15 13:45:21;;;;;;;0.7;0.2;;;;;;;15.09;52.1084;951.9903;;;;
2019/12/15 13:47:46;;;;;;;0.9;0.3;;;;;;;15.14;52.36426;952.008;;;;
2019/12/15 13:50:11;;;;;;;0.9;0.2;;;;;;;15.12;52.5166;952.1266;;;;
2019/12/15 13:52:36;;;;;;;1.3;0.3;;;;;;;15.12;52.38477;952.1101;;;;
2019/12/15 13:55:01;;;;;;;0.3;0.3;;;;;;;15.04;52.44629;952.1494;;;;
2019/12/15 13:57:26;;;;;;;0.4;0.3;;;;;;;14.98;52.71289;952.2802;;;;
2019/12/15 13:59:51;;;;;;;1.7;0.4;;;;;;;14.99;52.75977;952.243;;;;
2019/12/15 14:02:17;;;;;;;0.5;0.2;;;;;;;14.9;52.91504;952.2648;;;;
2019/12/15 14:04:42;;;;;;;0.9;0.3;;;;;;;14.94;52.99023;952.1848;;;;
2019/12/15 14:07:07;;;;;;;0.3;0.2;;;;;;;14.91;52.79785;952.2469;;;;
2019/12/15 14:09:32;;;;;;;1;0.4;;;;;;;14.93;53.03809;952.2781;;;;
2019/12/15 14:11:57;;;;;;;0.3;0.3;;;;;;;14.9;52.9873;952.3102;;;;
2019/12/15 14:14:22;;;;;;;0.6;0.3;;;;;;;14.87;53.01855;952.322;;;;
2019/12/15 14:16:47;;;;;;;0.6;0.3;;;;;;;14.89;53.16309;952.3192;;;;
2019/12/15 14:19:12;;;;;;;0.4;0.3;;;;;;;14.85;53.50195;952.3517;;;;
2019/12/15 14:21:38;;;;;;;0.4;0.3;;;;;;;14.85;53.65527;952.3823;;;;
2019/12/15 14:24:03;;;;;;;0.5;0.4;;;;;;;14.83;53.66406;952.421;;;;
2019/12/15 14:26:28;;;;;;;0.6;0.3;;;;;;;14.82;53.61621;952.4219;;;;
2019/12/15 14:28:53;;;;;;;0.6;0.4;;;;;;;14.77;53.88184;952.5918;;;;
2019/12/15 14:31:18;;;;;;;0.5;0.4;;;;;;;14.66;54.10547;952.5641;;;;